Weather observations for the past three days for
Atlanta, De Kalb-Peachtree Airport
Imperial (Metric)
Date Time (edt) Wind (mph) Vis. (mi.) Weather Sky Cond. Temperature (ºF) Relative Humidity Wind Chill (°F) Heat Index (°F) Pressure Precipitation (in)
Air Dwpt 6 hour altimeter (in) sea level (mb) 1 hr 3 hr 6 hr
Max. Min.
10 17:53 W 6 10.00 Fair CLR 80.1 50 35% 80 30.01 1015.0
10 16:53 Calm 10.00 Fair CLR 82 46.9 29% 80 30 1014.8
10 15:53 Calm 10.00 Fair CLR 81 48.9 33% 80 30.01 1014.9
10 14:53 W 8 10.00 Fair CLR 80.1 52 38% 80 30.02 1015.4
10 13:53 N 7 10.00 Fair CLR 80.1 53.1 80.1 62.1 39% 80 30.03 1015.7
10 12:53 S 3 10.00 Fair CLR 77 53.1 43% 78 30.04 1016.2
10 11:53 W 3 10.00 Fair CLR 75.9 54 47% 78 30.05 1016.5
10 10:53 Calm 10.00 Fair CLR 72 57.9 61% 30.06 1016.9
10 09:53 Calm 10.00 Fair CLR 69.1 59 70% 30.05 1016.8
10 08:53 N 3 9.00 Fair CLR 64.9 60.1 84% 30.05 1016.6
10 07:53 NW 6 6.00 Fog/Mist OVC005 62.1 60.1 63 55 93% 30.03 1016.0
10 06:53 N 8 5.00 Fog/Mist OVC004 61 60.1 97% 30 1015.1
10 05:53 N 3 0.75 Fog/Mist VV004 57 55 93% 29.98 1014.5
10 04:53 Calm 7.00 Fair CLR 59 57 93% 29.97 1013.9
10 03:53 Calm 9.00 Fair CLR 60.1 57.9 93% 29.95 1013.5
10 02:53 W 3 10.00 Fair CLR 61 59 93% 29.95 1013.3
10 01:53 W 5 10.00 Fair CLR 63 59 66.9 62.1 87% 29.95 1013.4
10 00:53 W 3 10.00 Fair CLR 63 59 87% 29.96 1013.8
09 23:53 W 5 10.00 Fair CLR 64 59 84% 29.97 1014.3
09 22:53 SW 6 10.00 Fair CLR 63 59 87% 29.96 1014.0
09 21:53 SW 5 10.00 Fair CLR 64.9 59 81% 29.94 1013.1
09 20:53 SW 6 10.00 Fair CLR 66 59 78% 29.93 1012.6
09 19:53 SW 6 10.00 Fair CLR 66.9 57.9 71.1 66.9 73% 29.91 1012.1
09 18:53 SW 5 10.00 Fair CLR 69.1 57.9 68% 29.89 1011.5
09 17:53 SW 6 10.00 Fair CLR 70 57.9 66% 29.89 1011.3
09 16:53 SW 6 10.00 Fair CLR 71.1 57.9 63% 29.87 1010.6
09 15:53 S 5 10.00 Fair CLR 70 57.9 66% 29.89 1011.3
09 14:53 Vrbl 3 10.00 A Few Clouds FEW026 70 55.9 61% 29.9 1011.6
09 13:53 W 7 10.00 Mostly Cloudy BKN014 68 57.9 68 61 70% 29.91 1011.9
09 12:53 SW 8 10.00 Overcast OVC013 64.9 59 81% 29.92 1012.7
09 11:53 W 7 9.00 Overcast OVC004 63 60.1 90% 29.92 1012.7
09 10:53 W 7 9.00 Overcast OVC009 62.1 57.9 86% 29.94 1013.3
09 09:53 W 8 10.00 Mostly Cloudy BKN009 BKN017 63 57.9 84% 29.92 1012.6
09 08:53 SW 6 10.00 Mostly Cloudy BKN017 62.1 57.9 86% 29.91 1012.0
09 07:53 NW 3 10.00 Mostly Cloudy BKN026 BKN050 61 57.9 61 55.9 90% 29.89 1011.4
09 06:53 Calm 9.00 Mostly Cloudy BKN026 59 55.9 90% 29.88 1011.2
09 05:53 Calm 10.00 Overcast FEW029 OVC037 59 55.9 90% 29.91 1011.9
09 04:53 Calm 10.00 Overcast OVC039 59 55.9 90% 29.89 1011.5
09 03:53 Calm 10.00 Mostly Cloudy BKN040 57 54 90% 29.9 1011.6
09 02:53 Calm 10.00 A Few Clouds FEW100 57 55 93% 29.89 1011.4
09 01:53 Calm 10.00 Overcast OVC055 59 55.9 64.9 57.9 90% 29.93 1012.8
09 00:53 Calm 10.00 Fair CLR 57.9 55 90% 29.93 1012.9
08 23:53 Calm 10.00 A Few Clouds FEW070 59 54 83% 29.95 1013.6
08 22:53 Calm 10.00 Fair CLR 61 54 78% 29.96 1013.9
08 21:53 S 6 10.00 A Few Clouds FEW029 63 54 73% 29.96 1014.1
08 20:53 S 6 10.00 Fair CLR 64 53.1 68% 29.96 1013.9
08 19:53 S 7 10.00 Fair CLR 64.9 52 72 64.9 63% 29.96 1014.0
08 18:53 SE 6 10.00 Fair CLR 66.9 52 59% 29.94 1013.6
08 17:53 S 6 10.00 Fair CLR 68 48.9 51% 29.95 1013.7
08 16:53 S 6 10.00 Fair CLR 69.1 50 51% 29.95 1013.7
08 15:53 Calm 10.00 Fair CLR 70 48 46% 29.95 1013.7
08 14:53 S 8 10.00 Fair CLR 71.1 48 44% 29.98 1014.6
08 13:53 S 7 10.00 Fair CLR 70 46 70 54 42% 30.01 1015.3
08 12:53 S 7 10.00 Fair CLR 66.9 48.9 53% 30.03 1016.3
08 11:53 Calm 10.00 Fair CLR 66 48.9 54% 30.06 1017.3
08 10:53 Vrbl 5 10.00 Fair CLR 63 48.9 60% 30.07 1017.7
08 09:53 Vrbl 3 8.00 Fair CLR 60.1 48.9 67% 30.07 1017.8
08 08:53 N 3 10.00 Fair CLR 57 48.9 74% 30.06 1017.6
08 07:53 Calm 10.00 Fair CLR 54 51.1 57 48.9 90% 30.05 1017.1
08 06:53 Calm 7.00 Fair CLR 48.9 48 97% 30.01 1015.9
08 05:53 Calm 8.00 Fair CLR 50 48 93% 29.99 1015.1
08 04:53 N 3 10.00 Fair CLR 51.1 48.9 92% 29.98 1014.9
08 03:53 N 6 10.00 Fair CLR 54 51.1 90% 29.97 1014.3
08 02:53 N 5 10.00 Fair CLR 55 51.1 87% 29.98 1014.7
08 01:53 NW 5 10.00 Fair CLR 57 53.1 64.9 55.9 87% 29.98 1014.8
08 00:53 NW 5 10.00 Fair CLR 57.9 54 87% 29.99 1014.7
07 23:53 W 3 10.00 Fair CLR 57.9 53.1 84% 29.98 1014.3
07 22:53 NW 3 10.00 Fair CLR 60.1 54 80% 29.97 1014.3
07 21:53 NW 5 10.00 Partly Cloudy SCT036 62.1 54 75% 29.96 1013.9
07 20:53 NW 5 10.00 Mostly Cloudy BKN031 BKN041 64 54 70% 29.95 1013.5
07 19:53 NW 8 10.00 Mostly Cloudy BKN033 BKN040 64.9 54 69.1 64.9 68% 29.93 1012.7
07 18:53 W 10 10.00 A Few Clouds FEW031 68 55.9 65% 29.92 1012.2
Date Time (edt) Wind (mph) Vis. (mi.) Weather Sky Cond. Air Dwpt Max. Min. Relative Humidity Wind Chill (°F) Heat Index (°F) altimeter (in) sea level (mb) 1 hr 3 hr 6 hr
6 hour
Temperature (ºF) Pressure Precipitation (in)